createdAt,value
2019-03-25T00:02:00.647Z,23.40
2019-03-25T00:04:28.868Z,26.13
2019-03-25T00:06:57.305Z,26.93
2019-03-25T00:09:25.683Z,28.70
2019-03-25T00:11:54.103Z,26.33
2019-03-25T00:14:22.377Z,26.67
2019-03-25T00:16:50.462Z,26.97
2019-03-25T00:19:18.490Z,29.73
2019-03-25T00:21:46.529Z,27.07
2019-03-25T00:24:14.524Z,27.97
2019-03-25T00:26:42.759Z,27.07
2019-03-25T00:29:10.843Z,26.80
2019-03-25T00:31:39.066Z,27.53
2019-03-25T00:34:07.053Z,29.30
2019-03-25T00:36:35.096Z,26.73
2019-03-25T00:39:04.429Z,24.97
2019-03-25T00:41:33.489Z,25.03
2019-03-25T00:44:01.604Z,20.80
2019-03-25T00:46:29.929Z,20.50
2019-03-25T00:48:57.935Z,19.20
2019-03-25T00:51:26.232Z,19.87
2019-03-25T00:53:54.183Z,18.63
2019-03-25T00:56:22.230Z,17.77
2019-03-25T00:58:50.418Z,19.07
2019-03-25T01:01:18.470Z,18.03
2019-03-25T01:03:46.626Z,17.70
2019-03-25T01:06:14.820Z,17.10
2019-03-25T01:08:42.889Z,15.97
2019-03-25T01:11:10.975Z,14.50
2019-03-25T01:13:39.093Z,14.07
2019-03-25T01:16:07.085Z,14.07
2019-03-25T01:18:35.247Z,12.53
2019-03-25T01:21:04.406Z,13.37
2019-03-25T01:23:32.389Z,12.47
2019-03-25T01:26:00.442Z,12.07
2019-03-25T01:28:28.891Z,12.17
2019-03-25T01:30:56.884Z,10.67
2019-03-25T01:33:24.882Z,9.77
2019-03-25T01:35:52.921Z,10.10
2019-03-25T01:38:21.207Z,9.60
2019-03-25T01:40:49.506Z,8.50
2019-03-25T01:43:17.750Z,8.27
2019-03-25T01:45:45.785Z,8.50
2019-03-25T01:48:13.997Z,8.40
2019-03-25T01:50:42.266Z,8.43
2019-03-25T01:53:10.367Z,9.03
2019-03-25T01:55:38.362Z,8.60
2019-03-25T01:58:06.453Z,8.23
2019-03-25T02:00:55.905Z,8.20
2019-03-25T02:03:27.145Z,8.57
2019-03-25T02:05:55.190Z,7.70
2019-03-25T02:08:23.265Z,8.43
2019-03-25T02:10:51.294Z,7.97
2019-03-25T02:13:19.307Z,8.67
2019-03-25T02:15:47.500Z,9.97
2019-03-25T02:18:15.458Z,7.30
2019-03-25T02:20:43.618Z,7.60
2019-03-25T02:23:12.914Z,6.87
2019-03-25T02:25:41.071Z,6.90
2019-03-25T02:28:09.147Z,6.97
2019-03-25T02:30:37.375Z,7.43
2019-03-25T02:33:05.495Z,7.43
2019-03-25T02:35:33.560Z,6.77
2019-03-25T02:38:01.618Z,5.90
2019-03-25T02:40:29.661Z,7.27
2019-03-25T02:42:57.779Z,4.80
2019-03-25T02:45:25.939Z,6.10
2019-03-25T02:47:53.973Z,5.10
2019-03-25T02:50:22.061Z,5.80
2019-03-25T02:52:50.109Z,4.53
2019-03-25T02:55:18.124Z,5.10
2019-03-25T02:57:46.402Z,4.70
2019-03-25T03:00:20.170Z,5.00
2019-03-25T03:02:48.215Z,5.23
2019-03-25T03:05:16.383Z,5.60
2019-03-25T03:07:44.482Z,5.30
2019-03-25T03:10:15.390Z,5.20
2019-03-25T03:12:43.563Z,5.60
2019-03-25T03:15:12.032Z,5.40
2019-03-25T03:17:40.056Z,4.40
2019-03-25T03:20:08.083Z,3.70
2019-03-25T03:22:36.171Z,5.10
2019-03-25T03:25:04.323Z,4.20
2019-03-25T03:27:32.339Z,4.20
2019-03-25T03:30:01.035Z,4.80
2019-03-25T03:32:30.386Z,4.03
2019-03-25T03:34:58.493Z,3.60
2019-03-25T03:37:26.774Z,4.40
2019-03-25T03:39:54.847Z,3.23
2019-03-25T03:42:23.329Z,3.83
2019-03-25T03:44:51.446Z,4.07
2019-03-25T03:47:19.499Z,3.80
2019-03-25T03:49:47.768Z,4.20
2019-03-25T03:52:15.898Z,4.43
2019-03-25T03:54:44.600Z,3.57
2019-03-25T03:57:13.291Z,3.37
2019-03-25T03:59:41.945Z,4.43
2019-03-25T04:02:09.957Z,4.43
2019-03-25T04:04:38.011Z,4.63
2019-03-25T04:07:05.977Z,4.23
2019-03-25T04:09:34.035Z,4.60
2019-03-25T04:12:02.189Z,4.33
2019-03-25T04:14:30.265Z,4.93
2019-03-25T04:16:58.290Z,3.93
2019-03-25T04:19:27.511Z,4.10
2019-03-25T04:21:55.581Z,4.60
2019-03-25T04:24:23.587Z,5.20
2019-03-25T04:26:52.595Z,4.70
2019-03-25T04:29:20.681Z,4.43
2019-03-25T04:31:49.026Z,4.93
2019-03-25T04:34:17.086Z,4.60
2019-03-25T04:36:45.124Z,5.20
2019-03-25T04:39:13.142Z,4.20
2019-03-25T04:41:41.291Z,4.23
2019-03-25T04:44:09.366Z,4.87
2019-03-25T04:46:37.424Z,5.00
2019-03-25T04:49:05.421Z,5.13
2019-03-25T04:51:33.450Z,4.77
2019-03-25T04:54:02.453Z,5.60
2019-03-25T04:56:39.133Z,5.23
2019-03-25T04:59:00.577Z,4.73
2019-03-25T05:01:28.639Z,4.77
2019-03-25T05:03:56.618Z,5.60
2019-03-25T05:06:24.642Z,5.50
2019-03-25T05:08:52.656Z,5.30
2019-03-25T05:11:30.244Z,5.33
2019-03-25T05:13:50.795Z,5.90
2019-03-25T05:16:18.913Z,5.90
2019-03-25T05:18:46.961Z,6.20
2019-03-25T05:21:15.035Z,5.50
2019-03-25T05:23:43.029Z,6.00
2019-03-25T05:26:11.211Z,5.30
2019-03-25T05:28:39.293Z,5.00
2019-03-25T05:31:07.387Z,6.80
2019-03-25T05:33:35.585Z,5.87
2019-03-25T05:36:03.639Z,6.03
2019-03-25T05:38:31.656Z,6.27
2019-03-25T05:40:59.741Z,5.67
2019-03-25T05:43:27.804Z,6.23
2019-03-25T05:45:56.096Z,5.97
2019-03-25T05:48:24.503Z,6.37
2019-03-25T05:50:52.542Z,6.50
2019-03-25T05:53:20.634Z,6.07
2019-03-25T05:55:48.681Z,5.93
2019-03-25T05:58:16.717Z,5.80
2019-03-25T06:00:44.785Z,7.33
2019-03-25T06:03:12.829Z,7.23
2019-03-25T06:05:40.916Z,6.80
2019-03-25T06:08:09.048Z,5.77
2019-03-25T06:10:37.709Z,7.40
2019-03-25T06:13:05.865Z,6.03
2019-03-25T06:15:34.014Z,6.73
2019-03-25T06:18:02.087Z,6.20
2019-03-25T06:20:30.080Z,5.67
2019-03-25T06:22:58.150Z,4.90
2019-03-25T06:25:26.267Z,5.90
2019-03-25T06:27:54.258Z,7.03
2019-03-25T06:30:22.401Z,6.40
2019-03-25T06:32:50.553Z,5.90
2019-03-25T06:35:18.677Z,5.70
2019-03-25T06:37:46.948Z,5.93
2019-03-25T06:40:15.113Z,6.33
2019-03-25T06:42:43.905Z,5.43
2019-03-25T06:45:12.300Z,6.40
2019-03-25T06:47:40.473Z,7.20
2019-03-25T06:50:09.445Z,6.47
2019-03-25T06:52:37.513Z,4.77
2019-03-25T06:55:06.966Z,6.43
2019-03-25T06:57:35.040Z,6.17
2019-03-25T07:00:03.875Z,5.50
2019-03-25T07:02:32.721Z,5.83
2019-03-25T07:05:00.979Z,6.30
2019-03-25T07:07:29.462Z,6.43
2019-03-25T07:09:57.473Z,6.60
2019-03-25T07:12:25.669Z,5.73
2019-03-25T07:14:55.044Z,5.40
2019-03-25T07:17:23.196Z,5.43
2019-03-25T07:19:51.430Z,6.40
2019-03-25T07:22:19.715Z,6.07
2019-03-25T07:24:48.349Z,7.20
2019-03-25T07:27:16.427Z,6.60
2019-03-25T07:29:44.405Z,5.87
2019-03-25T07:32:12.544Z,6.33
2019-03-25T07:34:41.349Z,5.90
2019-03-25T07:37:09.539Z,6.07
2019-03-25T07:39:37.538Z,5.93
2019-03-25T07:42:05.849Z,5.83
2019-03-25T07:44:33.853Z,6.57
2019-03-25T07:47:01.943Z,5.93
2019-03-25T07:49:30.027Z,6.03
2019-03-25T07:51:58.112Z,5.13
2019-03-25T07:54:26.182Z,5.63
2019-03-25T07:56:54.535Z,6.13
2019-03-25T07:59:22.699Z,5.63
2019-03-25T08:01:50.858Z,6.90
2019-03-25T08:04:18.912Z,5.60
2019-03-25T08:06:46.936Z,6.10
2019-03-25T08:09:14.926Z,5.03
2019-03-25T08:11:42.939Z,5.80
2019-03-25T08:14:11.052Z,6.40
2019-03-25T08:16:39.169Z,7.50
2019-03-25T08:19:07.207Z,5.43
2019-03-25T08:21:35.252Z,5.07
2019-03-25T08:24:03.259Z,5.87
2019-03-25T08:26:31.241Z,4.67
2019-03-25T08:28:59.495Z,6.20
2019-03-25T08:31:27.537Z,6.33
2019-03-25T08:33:55.973Z,5.40
2019-03-25T08:36:24.121Z,6.20
2019-03-25T08:38:52.137Z,5.60
2019-03-25T08:41:20.125Z,5.57
2019-03-25T08:43:50.311Z,5.03
2019-03-25T08:46:18.087Z,4.70
2019-03-25T08:48:46.147Z,4.70
2019-03-25T08:51:14.245Z,4.60
2019-03-25T08:53:42.358Z,5.03
2019-03-25T08:56:10.334Z,4.23
2019-03-25T08:58:38.422Z,5.00
2019-03-25T09:01:06.438Z,5.20
2019-03-25T09:03:35.526Z,4.10
2019-03-25T09:06:03.663Z,4.20
2019-03-25T09:08:31.792Z,5.17
2019-03-25T09:10:59.876Z,4.63
2019-03-25T09:13:27.857Z,3.57
2019-03-25T09:15:55.929Z,3.90
2019-03-25T09:18:24.101Z,3.43
2019-03-25T09:20:52.145Z,4.67
2019-03-25T09:23:20.252Z,4.60
2019-03-25T09:25:48.377Z,4.40
2019-03-25T09:28:24.249Z,3.80
2019-03-25T09:31:19.118Z,4.57
2019-03-25T09:33:47.921Z,3.70
2019-03-25T09:36:20.852Z,3.60
2019-03-25T09:38:49.118Z,4.27
2019-03-25T09:41:17.155Z,4.23
2019-03-25T09:43:45.325Z,3.43
2019-03-25T09:46:13.318Z,4.20
2019-03-25T09:48:41.331Z,3.70
2019-03-25T09:51:09.457Z,3.60
2019-03-25T09:53:37.437Z,4.50
2019-03-25T09:56:05.480Z,3.33
2019-03-25T09:58:36.411Z,4.67
2019-03-25T10:01:03.914Z,3.27
2019-03-25T10:03:31.946Z,4.30
2019-03-25T10:06:00.242Z,4.70
2019-03-25T10:08:28.294Z,3.53
2019-03-25T10:10:56.297Z,3.27
2019-03-25T10:13:24.338Z,4.00
2019-03-25T10:15:52.468Z,4.87
2019-03-25T10:18:20.721Z,4.90
2019-03-25T10:20:48.848Z,4.33
2019-03-25T10:23:16.989Z,3.80
2019-03-25T10:25:45.143Z,4.50
2019-03-25T10:28:13.183Z,5.37
2019-03-25T10:30:41.222Z,4.50
2019-03-25T10:33:09.325Z,3.70
2019-03-25T10:35:37.308Z,3.97
2019-03-25T10:38:05.354Z,4.83
2019-03-25T10:40:33.440Z,5.67
2019-03-25T10:43:02.877Z,4.00
2019-03-25T10:45:30.897Z,4.93
2019-03-25T10:47:58.963Z,4.23
2019-03-25T10:50:26.998Z,4.23
2019-03-25T10:52:55.223Z,3.63
2019-03-25T10:55:23.373Z,4.60
2019-03-25T10:57:51.565Z,3.83
2019-03-25T11:00:19.636Z,3.60
2019-03-25T11:02:47.812Z,3.90
2019-03-25T11:05:16.014Z,4.53
2019-03-25T11:07:44.127Z,4.10
2019-03-25T11:10:12.689Z,3.80
2019-03-25T11:12:40.797Z,5.00
2019-03-25T11:15:11.206Z,4.53
2019-03-25T11:17:39.323Z,4.10
2019-03-25T11:20:08.873Z,3.70
2019-03-25T11:22:37.084Z,4.30
2019-03-25T11:25:05.641Z,3.60
2019-03-25T11:27:33.717Z,3.30
2019-03-25T11:30:02.228Z,5.03
2019-03-25T11:32:31.408Z,3.13
2019-03-25T11:34:59.468Z,3.50
2019-03-25T11:37:27.517Z,3.27
2019-03-25T11:39:55.577Z,3.83
2019-03-25T11:42:23.623Z,3.20
2019-03-25T11:44:51.897Z,3.40
2019-03-25T11:47:20.006Z,2.70
2019-03-25T11:49:48.073Z,3.60
2019-03-25T11:52:18.000Z,2.47
2019-03-25T11:54:47.234Z,2.97
2019-03-25T11:57:15.281Z,3.93
2019-03-25T11:59:43.310Z,3.37
2019-03-25T12:02:17.589Z,3.07
2019-03-25T12:04:41.600Z,3.30
2019-03-25T12:07:09.808Z,2.43
2019-03-25T12:09:38.041Z,2.73
2019-03-25T12:12:06.078Z,2.40
2019-03-25T12:14:34.097Z,2.70
2019-03-25T12:17:02.246Z,2.63
2019-03-25T12:19:30.328Z,2.60
2019-03-25T12:21:58.420Z,2.00
2019-03-25T12:24:26.462Z,1.80
2019-03-25T12:26:54.585Z,1.70
2019-03-25T12:29:29.960Z,2.23
2019-03-25T12:31:52.753Z,2.00
2019-03-25T12:34:20.987Z,1.73
2019-03-25T12:36:49.320Z,1.97
2019-03-25T12:39:17.329Z,1.63
2019-03-25T12:41:45.354Z,2.30
2019-03-25T12:44:13.523Z,2.17
2019-03-25T12:46:41.506Z,1.77
2019-03-25T12:49:09.631Z,2.13
2019-03-25T12:51:37.752Z,2.00
2019-03-25T12:54:05.977Z,2.37
2019-03-25T12:56:34.062Z,2.30
2019-03-25T12:59:02.476Z,1.97
2019-03-25T13:01:30.596Z,1.83
2019-03-25T13:03:58.816Z,1.40
2019-03-25T13:06:26.855Z,1.50
2019-03-25T13:08:54.949Z,1.80
2019-03-25T13:11:22.953Z,1.50
2019-03-25T13:13:50.957Z,2.00
2019-03-25T13:16:19.025Z,1.80
2019-03-25T13:18:47.165Z,1.83
2019-03-25T13:21:15.481Z,2.97
2019-03-25T13:23:43.589Z,2.43
2019-03-25T13:26:11.790Z,2.03
2019-03-25T13:28:39.818Z,2.67
2019-03-25T13:31:07.937Z,2.00
2019-03-25T13:33:36.337Z,2.50
2019-03-25T13:36:05.602Z,2.40
2019-03-25T13:38:33.745Z,2.10
2019-03-25T13:41:01.855Z,2.00
2019-03-25T13:43:29.825Z,2.47
2019-03-25T13:46:05.390Z,1.77
2019-03-25T13:48:27.925Z,7.17
2019-03-25T13:50:55.933Z,1.87
2019-03-25T13:53:24.001Z,2.73
2019-03-25T13:55:52.193Z,2.80
2019-03-25T13:58:20.224Z,1.53
2019-03-25T14:00:48.301Z,1.63
2019-03-25T14:03:16.367Z,2.03
2019-03-25T14:05:44.415Z,1.70
2019-03-25T14:08:12.417Z,1.80
2019-03-25T14:10:40.820Z,2.30
2019-03-25T14:13:08.846Z,1.57
2019-03-25T14:15:36.878Z,2.10
2019-03-25T14:18:05.207Z,2.13
2019-03-25T14:20:34.479Z,2.50
2019-03-25T14:23:02.657Z,1.50
2019-03-25T14:25:30.696Z,1.50
2019-03-25T14:27:59.268Z,1.07
2019-03-25T14:30:27.433Z,1.20
2019-03-25T14:32:55.473Z,2.13
2019-03-25T14:35:23.590Z,1.03
2019-03-25T14:37:51.961Z,1.20
2019-03-25T14:40:19.933Z,0.90
2019-03-25T14:42:47.965Z,1.40
2019-03-25T14:45:26.042Z,1.17
2019-03-25T14:47:46.105Z,0.90
2019-03-25T14:50:14.237Z,1.47
2019-03-25T14:52:42.337Z,1.03
2019-03-25T14:55:10.353Z,1.20
2019-03-25T14:57:38.626Z,2.57
2019-03-25T15:00:08.005Z,1.67
2019-03-25T15:02:36.131Z,0.83
2019-03-25T15:05:05.821Z,0.97
2019-03-25T15:07:33.893Z,1.10
2019-03-25T15:10:03.821Z,0.87
2019-03-25T15:12:31.953Z,0.80
2019-03-25T15:15:00.306Z,0.90
2019-03-25T15:17:28.708Z,1.30
2019-03-25T15:19:56.719Z,1.90
2019-03-25T15:22:24.728Z,1.10
2019-03-25T15:24:52.912Z,0.80
2019-03-25T15:27:21.086Z,1.03
2019-03-25T15:29:49.199Z,1.20
2019-03-25T15:32:18.698Z,1.10
2019-03-25T15:34:46.980Z,1.30
2019-03-25T15:37:15.096Z,1.00
2019-03-25T15:39:47.021Z,1.00
2019-03-25T15:42:13.206Z,1.40
2019-03-25T15:44:41.250Z,1.30
2019-03-25T15:47:09.574Z,1.10
2019-03-25T15:49:37.694Z,0.70
2019-03-25T15:52:05.942Z,12.80
2019-03-25T15:54:34.214Z,1.30
2019-03-25T15:57:02.447Z,8.90
2019-03-25T15:59:30.569Z,1.60
2019-03-25T16:01:58.747Z,1.70
2019-03-25T16:04:27.308Z,0.63
2019-03-25T16:06:55.298Z,0.60
2019-03-25T16:09:23.439Z,0.90
2019-03-25T16:11:51.573Z,1.33
2019-03-25T16:14:19.627Z,0.80
2019-03-25T16:16:48.510Z,1.50
2019-03-25T16:19:16.602Z,0.70
2019-03-25T16:21:44.601Z,1.07
2019-03-25T16:24:13.745Z,0.90
2019-03-25T16:26:44.033Z,1.00
2019-03-25T16:29:12.207Z,0.60
2019-03-25T16:31:40.312Z,0.80
2019-03-25T16:34:08.403Z,0.50
2019-03-25T16:36:36.566Z,0.50
2019-03-25T16:39:05.870Z,0.60
2019-03-25T16:41:35.839Z,0.57
2019-03-25T16:44:04.072Z,0.63
2019-03-25T16:46:32.077Z,0.33
2019-03-25T16:49:00.122Z,0.30
2019-03-25T16:51:28.263Z,0.50
2019-03-25T16:53:56.279Z,0.53
2019-03-25T16:56:24.336Z,0.60
2019-03-25T16:58:52.486Z,0.30
2019-03-25T17:01:20.526Z,0.40
2019-03-25T17:03:48.646Z,0.77
2019-03-25T17:06:16.884Z,0.90
2019-03-25T17:08:44.875Z,0.50
2019-03-25T17:11:13.095Z,0.40
2019-03-25T17:13:41.294Z,0.57
2019-03-25T17:16:09.482Z,0.40
2019-03-25T17:18:37.544Z,0.50
2019-03-25T17:21:05.649Z,3.20
2019-03-25T17:23:33.722Z,6.97
2019-03-25T17:26:01.872Z,2.53
2019-03-25T17:28:30.011Z,1.40
2019-03-25T17:30:58.038Z,3.57
2019-03-25T17:33:27.150Z,5.50
2019-03-25T17:35:55.497Z,7.17
2019-03-25T17:38:23.680Z,1.60
2019-03-25T17:40:51.821Z,1.20
2019-03-25T17:43:19.926Z,1.27
2019-03-25T17:45:48.033Z,39.63
2019-03-25T17:48:16.145Z,4.90
2019-03-25T17:50:44.206Z,2.67
2019-03-25T17:53:12.281Z,2.70
2019-03-25T17:55:40.498Z,1.77
2019-03-25T17:58:08.770Z,2.70
2019-03-25T18:01:17.271Z,2.23
2019-03-25T18:03:45.333Z,2.50
2019-03-25T18:06:13.592Z,2.73
2019-03-25T18:08:41.963Z,1.00
2019-03-25T18:11:10.050Z,2.40
2019-03-25T18:13:38.157Z,4.53
2019-03-25T18:16:06.252Z,2.30
2019-03-25T18:18:34.336Z,3.57
2019-03-25T18:21:02.495Z,2.97
2019-03-25T18:23:30.625Z,3.33
2019-03-25T18:25:58.722Z,7.60
2019-03-25T18:28:26.813Z,14.70
2019-03-25T18:30:54.835Z,5.90
2019-03-25T18:33:23.313Z,5.03
2019-03-25T18:35:51.375Z,4.20
2019-03-25T18:38:19.693Z,3.30
2019-03-25T18:40:47.729Z,2.17
2019-03-25T18:43:15.806Z,2.20
2019-03-25T18:45:43.818Z,2.00
2019-03-25T18:48:11.990Z,2.60
2019-03-25T18:50:39.990Z,2.50
2019-03-25T18:53:08.263Z,2.30
2019-03-25T18:55:36.373Z,22.30
2019-03-25T18:58:04.512Z,7.37
2019-03-25T19:00:33.598Z,3.53
2019-03-25T19:03:02.108Z,2.53
2019-03-25T19:05:30.296Z,2.17
2019-03-25T19:08:00.040Z,2.97
2019-03-25T19:10:28.282Z,2.60
2019-03-25T19:12:56.304Z,2.43
2019-03-25T19:15:25.732Z,2.33
2019-03-25T19:17:53.819Z,1.77
2019-03-25T19:20:21.861Z,1.83
2019-03-25T19:22:49.923Z,2.30
2019-03-25T19:25:18.069Z,2.07
2019-03-25T19:27:46.141Z,2.10
2019-03-25T19:30:14.912Z,1.73
2019-03-25T19:32:42.976Z,2.73
2019-03-25T19:35:11.357Z,2.00
2019-03-25T19:37:39.438Z,8.20
2019-03-25T19:40:07.971Z,2.30
2019-03-25T19:42:36.195Z,2.13
2019-03-25T19:45:06.076Z,3.63
2019-03-25T19:47:34.061Z,5.90
2019-03-25T19:50:02.217Z,3.90
2019-03-25T19:52:30.370Z,7.37
2019-03-25T19:54:58.502Z,8.30
2019-03-25T19:57:28.363Z,3.80
2019-03-25T19:59:56.728Z,14.20
2019-03-25T20:02:24.911Z,21.47
2019-03-25T20:04:53.045Z,12.83
2019-03-25T20:07:21.357Z,6.00
2019-03-25T20:09:49.607Z,2.97
2019-03-25T20:12:17.924Z,3.70
2019-03-25T20:14:46.101Z,4.63
2019-03-25T20:17:14.151Z,3.70
2019-03-25T20:19:42.253Z,4.13
2019-03-25T20:22:10.460Z,3.00
2019-03-25T20:24:38.495Z,2.57
2019-03-25T20:27:06.705Z,2.93
2019-03-25T20:29:35.022Z,2.63
2019-03-25T20:32:03.289Z,2.70
2019-03-25T20:34:31.515Z,2.63
2019-03-25T20:36:59.590Z,2.57
2019-03-25T20:39:27.708Z,3.50
2019-03-25T20:41:55.829Z,2.60
2019-03-25T20:44:23.959Z,2.90
2019-03-25T20:46:52.170Z,2.80
2019-03-25T20:49:20.354Z,3.50
2019-03-25T20:54:41.190Z,3.57
2019-03-25T20:57:09.347Z,3.20
2019-03-25T20:59:37.577Z,2.83
2019-03-25T21:02:05.715Z,2.90
2019-03-25T21:04:33.851Z,2.67
2019-03-25T21:07:01.959Z,2.57
2019-03-25T21:09:30.199Z,2.30
2019-03-25T21:11:58.401Z,2.40
2019-03-25T21:14:26.626Z,2.80
2019-03-25T21:16:54.724Z,2.07
2019-03-25T21:19:22.773Z,2.20
2019-03-25T21:21:50.815Z,1.70
2019-03-25T21:24:19.020Z,1.63
2019-03-25T21:26:47.423Z,2.40
2019-03-25T21:29:15.833Z,2.53
2019-03-25T21:31:44.112Z,2.20
2019-03-25T21:34:12.334Z,3.50
2019-03-25T21:36:41.425Z,3.40
2019-03-25T21:39:09.629Z,3.90
2019-03-25T21:42:02.935Z,5.10
2019-03-25T21:44:31.275Z,4.97
2019-03-25T21:46:59.334Z,5.30
2019-03-25T21:49:28.599Z,4.87
2019-03-25T21:51:56.774Z,6.27
2019-03-25T21:54:25.084Z,6.40
2019-03-25T21:56:53.363Z,6.80
2019-03-25T21:59:21.472Z,6.90
2019-03-25T22:01:49.612Z,8.53
2019-03-25T22:04:18.045Z,8.13
2019-03-25T22:06:46.368Z,8.27
2019-03-25T22:09:14.428Z,8.00
2019-03-25T22:11:42.606Z,8.90
2019-03-25T22:14:10.850Z,9.20
2019-03-25T22:16:39.100Z,8.63
2019-03-25T22:19:07.330Z,9.20
2019-03-25T22:21:35.464Z,10.20
2019-03-25T22:24:03.498Z,9.80
2019-03-25T22:26:31.606Z,9.60
2019-03-25T22:28:59.658Z,10.20
2019-03-25T22:31:27.849Z,11.53
2019-03-25T22:33:56.054Z,11.57
2019-03-25T22:36:24.241Z,11.03
2019-03-25T22:38:52.301Z,11.00
2019-03-25T22:41:20.448Z,11.60
2019-03-25T22:43:48.482Z,11.47
2019-03-25T22:46:16.581Z,11.17
2019-03-25T22:48:44.749Z,11.63
2019-03-25T22:51:12.796Z,11.00
2019-03-25T22:53:40.863Z,11.13
2019-03-25T22:56:09.001Z,11.50
2019-03-25T22:58:37.106Z,11.63
2019-03-25T23:01:05.594Z,11.50
2019-03-25T23:03:39.156Z,12.70
2019-03-25T23:06:03.849Z,10.60
2019-03-25T23:08:32.083Z,12.23
2019-03-25T23:11:00.120Z,12.60
2019-03-25T23:13:28.431Z,12.47
2019-03-25T23:15:56.469Z,12.20
2019-03-25T23:18:24.577Z,10.93
2019-03-25T23:20:52.736Z,11.80
2019-03-25T23:23:20.806Z,13.03
2019-03-25T23:25:48.928Z,12.80
2019-03-25T23:28:17.104Z,11.37
2019-03-25T23:30:45.280Z,11.97
2019-03-25T23:33:13.540Z,11.83
2019-03-25T23:35:41.613Z,12.43
2019-03-25T23:38:09.738Z,10.80
2019-03-25T23:40:37.842Z,11.40
2019-03-25T23:43:06.133Z,12.10
2019-03-25T23:45:34.165Z,11.90
2019-03-25T23:48:02.440Z,11.53
2019-03-25T23:50:30.623Z,10.67
2019-03-25T23:52:58.886Z,11.27
2019-03-25T23:55:26.956Z,10.83
2019-03-25T23:57:54.943Z,11.00
